Time;durP1;ratioP1;P1;durP2;ratioP2;P2;SDS_P1;SDS_P2;PMS_P1;PMS_P2;Temp;Humidity;BMP_temperature;BMP_pressure;BME280_temperature;BME280_humidity;BME280_pressure;Samples;Min_cycle;Max_cycle;Signal;HPM_P1;HPM_P2
2023/10/22 05:07:38;;;;;;;;;;;;;;;;;;809142;22;20228;-90
2023/10/22 05:10:04;;;;;;;;;;;;;;;;;;5005163;28;21125;-90
2023/10/22 05:12:30;;;;;;;;;;;;;;;;;;5010161;28;19924;-89
2023/10/22 05:14:56;;;;;;;;;;;;;;;;;;5008648;28;19924;-89
2023/10/22 05:17:24;;;;;;;;;;;;;;;;;;5009301;28;19918;-91
2023/10/22 05:19:50;;;;;;;;;;;;;;;;;;5005369;28;19913;-90
2023/10/22 05:22:20;;;;;;;;;;;;;;;;;;5005939;28;20012;-90
2023/10/22 05:24:46;;;;;;;;;;;;;;;;;;5008380;28;19953;-90
2023/10/22 05:27:12;;;;;;;;;;;;;;;;;;5007847;28;19965;-90
2023/10/22 05:29:39;;;;;;;;;;;;;;;;;;5006468;28;20427;-90
2023/10/22 05:32:05;;;;;;;;;;;;;;;;;;5003442;28;19988;-91
2023/10/22 05:34:31;;;;;;;;;;;;;;;;;;5008091;28;20394;-91
2023/10/22 05:36:57;;;;;;;;;;;;;;;;;;4998001;28;20322;-90
2023/10/22 05:39:22;;;;;;;;;;;;;;;;;;5006214;28;19917;-90
2023/10/22 05:41:49;;;;;;;;;;;;;;;;;;5007995;28;19921;-91
2023/10/22 05:44:14;;;;;;;;;;;;;;;;;;5007264;28;20192;-90
2023/10/22 05:46:41;;;;;;;;;;;;;;;;;;5009823;28;19914;-91
2023/10/22 05:49:10;;;;;;;;;;;;;;;;;;5010170;28;19913;-90
2023/10/22 05:51:36;;;;;;;;;;;;;;;;;;5007701;28;20018;-90
2023/10/22 05:54:03;;;;;;;;;;;;;;;;;;5007839;28;19918;-90
2023/10/22 05:56:29;;;;;;;;;;;;;;;;;;5010236;28;19927;-89
2023/10/22 05:58:55;;;;;;;;;;;;;;;;;;5009810;28;20401;-91
2023/10/22 06:01:21;;;;;;;;;;;;;;;;;;5003756;28;19918;-92
2023/10/22 06:03:48;;;;;;;;;;;;;;;;;;5012943;28;19929;-91
2023/10/22 06:06:14;;;;;;;;;;;;;;;;;;5006507;28;19918;-91
2023/10/22 06:08:42;;;;;;;;;;;;;;;;;;5013142;28;19932;-94
2023/10/22 06:11:07;;;;;;;;;;;;;;;;;;5005441;28;19945;-93
2023/10/22 06:13:33;;;;;;;;;;;;;;;;;;5021393;28;19925;-95
2023/10/22 06:16:03;;;;;;;;;;;;;;;;;;5017672;28;20514;-95
2023/10/22 06:18:29;;;;;;;;;;;;;;;;;;5009387;28;20424;-93
2023/10/22 06:20:54;;;;;;;;;;;;;;;;;;5010719;28;19925;-94
2023/10/22 06:23:24;;;;;;;;;;;;;;;;;;5001752;28;19974;-93
2023/10/22 06:25:50;;;;;;;;;;;;;;;;;;5018262;28;19918;-93
2023/10/22 06:28:16;;;;;;;;;;;;;;;;;;5007988;28;19944;-93
2023/10/22 06:30:43;;;;;;;;;;;;;;;;;;5004322;28;20419;-93
2023/10/22 06:33:09;;;;;;;;;;;;;;;;;;5007817;28;20388;-92
2023/10/22 06:35:36;;;;;;;;;;;;;;;;;;5005710;28;19918;-91
2023/10/22 06:38:02;;;;;;;;;;;;;;;;;;5006561;28;19914;-92
2023/10/22 06:40:28;;;;;;;;;;;;;;;;;;4997725;28;19914;-93
2023/10/22 06:42:54;;;;;;;;;;;;;;;;;;5005156;28;19917;-94
2023/10/22 06:45:19;;;;;;;;;;;;;;;;;;5006621;28;19924;-92
2023/10/22 06:47:49;;;;;;;;;;;;;;;;;;5006788;28;19913;-92
2023/10/22 06:50:15;;;;;;;;;;;;;;;;;;5002241;28;20020;-93
2023/10/22 06:52:44;;;;;;;;;;;;;;;;;;5001356;28;20052;-93
2023/10/22 06:55:10;;;;;;;;;;;;;;;;;;5008241;28;19917;-94
2023/10/22 06:57:36;;;;;;;;;;;;;;;;;;5019773;28;19924;-94
2023/10/22 07:00:02;;;;;;;;;;;;;;;;;;5007388;28;19933;-93
2023/10/22 07:02:28;;;;;;;;;;;;;;;;;;5017722;28;19921;-92
2023/10/22 07:04:54;;;;;;;;;;;;;;;;;;5012729;28;20354;-94
2023/10/22 07:07:20;;;;;;;;;;;;;;;;;;5032092;28;19913;-94
2023/10/22 07:09:47;;;;;;;;;;;;;;;;;;5019324;28;19961;-94
2023/10/22 07:12:13;;;;;;;;;;;;;;;;;;5015866;28;19918;-95
2023/10/22 07:14:40;;;;;;;;;;;;;;;;;;5008391;28;19913;-94
2023/10/22 07:17:06;;;;;;;;;;;;;;;;;;5018714;28;20455;-96
2023/10/22 08:39:32;;;;;;;;;;;;;;;;;;804732;22;20221;-96
2023/10/22 08:42:00;;;;;;;;;;;;;;;;;;4963970;28;19930;-95
2023/10/22 08:44:25;;;;;;;;;;;;;;;;;;4952657;28;19957;-93
2023/10/22 08:46:51;;;;;;;;;;;;;;;;;;4950482;28;19957;-94
2023/10/22 08:49:17;;;;;;;;;;;;;;;;;;4973516;28;20021;-96
2023/10/22 08:51:43;;;;;;;;;;;;;;;;;;4945022;28;19930;-94
2023/10/22 08:54:10;;;;;;;;;;;;;;;;;;4960061;28;19957;-94
2023/10/22 08:56:36;;;;;;;;;;;;;;;;;;4947689;28;20486;-93
2023/10/22 08:59:02;;;;;;;;;;;;;;;;;;4957161;28;19990;-95
2023/10/22 09:01:28;;;;;;;;;;;;;;;;;;4949708;28;19914;-94
2023/10/22 09:03:54;;;;;;;;;;;;;;;;;;4961440;28;19930;-93
2023/10/22 09:06:22;;;;;;;;;;;;;;;;;;4946431;28;19922;-94
2023/10/22 09:08:47;;;;;;;;;;;;;;;;;;4949299;28;20358;-94
2023/10/22 09:11:14;;;;;;;;;;;;;;;;;;4945996;28;19954;-94
2023/10/22 09:13:39;;;;;;;;;;;;;;;;;;4948490;28;19929;-95
2023/10/22 09:16:06;;;;;;;;;;;;;;;;;;4954525;28;19922;-94
2023/10/22 09:18:32;;;;;;;;;;;;;;;;;;4963802;28;19918;-93
2023/10/22 09:20:58;;;;;;;;;;;;;;;;;;4966976;28;19924;-94
2023/10/22 09:23:24;;;;;;;;;;;;;;;;;;4962540;28;19999;-94
2023/10/22 09:25:50;;;;;;;;;;;;;;;;;;4965026;28;20645;-94
2023/10/22 09:28:16;;;;;;;;;;;;;;;;;;4965720;28;19918;-93
2023/10/22 09:30:43;;;;;;;;;;;;;;;;;;4980091;28;19926;-93
2023/10/22 09:33:09;;;;;;;;;;;;;;;;;;4969180;28;19923;-94
2023/10/22 09:35:35;;;;;;;;;;;;;;;;;;4969249;28;19924;-95
2023/10/22 09:38:02;;;;;;;;;;;;;;;;;;4970986;28;20017;-91
2023/10/22 09:40:28;;;;;;;;;;;;;;;;;;4992889;28;19953;-91
2023/10/22 09:42:55;;;;;;;;;;;;;;;;;;4992081;28;19926;-90
2023/10/22 09:45:21;;;;;;;;;;;;;;;;;;4985223;28;19922;-89
2023/10/22 09:47:48;;;;;;;;;;;;;;;;;;4982939;28;19953;-90
2023/10/22 09:50:18;;;;;;;;;;;;;;;;;;4966387;28;19937;-89
2023/10/22 09:52:44;;;;;;;;;;;;;;;;;;4971927;28;19914;-91
2023/10/22 09:55:10;;;;;;;;;;;;;;;;;;4964881;28;20002;-89
2023/10/22 09:57:36;;;;;;;;;;;;;;;;;;4968228;28;20014;-89
2023/10/22 10:00:07;;;;;;;;;;;;;;;;;;4979791;28;19921;-90
2023/10/22 10:02:34;;;;;;;;;;;;;;;;;;4969367;28;19924;-89
2023/10/22 10:05:02;;;;;;;;;;;;;;;;;;4973629;28;20383;-90
2023/10/22 10:07:30;;;;;;;;;;;;;;;;;;4991031;28;19921;-91
2023/10/22 10:10:03;;;;;;;;;;;;;;;;;;4978590;28;19918;-92
2023/10/22 10:12:31;;;;;;;;;;;;;;;;;;4971046;28;20303;-92
2023/10/22 10:14:57;;;;;;;;;;;;;;;;;;4988308;28;19922;-92
2023/10/22 10:17:23;;;;;;;;;;;;;;;;;;4970339;28;20278;-91
2023/10/22 10:19:51;;;;;;;;;;;;;;;;;;4987237;28;19917;-91
2023/10/22 10:22:17;;;;;;;;;;;;;;;;;;4979828;28;19914;-90
2023/10/22 10:24:44;;;;;;;;;;;;;;;;;;4975725;28;19917;-90
2023/10/22 10:27:13;;;;;;;;;;;;;;;;;;4979862;28;20281;-90
2023/10/22 10:29:40;;;;;;;;;;;;;;;;;;4980699;28;19933;-90
2023/10/22 10:32:16;;;;;;;;;;;;;;;;;;4973149;28;19918;-89
2023/10/22 10:34:43;;;;;;;;;;;;;;;;;;4980319;28;20052;-89
2023/10/22 10:37:10;;;;;;;;;;;;;;;;;;4977353;28;19914;-90
2023/10/22 10:39:39;;;;;;;;;;;;;;;;;;4989380;28;20761;-90
2023/10/22 10:42:05;;;;;;;;;;;;;;;;;;4980613;28;19926;-90
2023/10/22 10:44:32;;;;;;;;;;;;;;;;;;4981948;28;19972;-92
2023/10/22 10:46:58;;;;;;;;;;;;;;;;;;4978445;28;20278;-89
2023/10/22 10:49:26;;;;;;;;;;;;;;;;;;4973817;28;20008;-93
2023/10/22 10:51:52;;;;;;;;;;;;;;;;;;4965650;28;19918;-94
2023/10/22 10:54:18;;;;;;;;;;;;;;;;;;4969939;28;20333;-93
2023/10/22 10:56:47;;;;;;;;;;;;;;;;;;4965858;28;19915;-93
2023/10/22 10:59:15;;;;;;;;;;;;;;;;;;4970309;28;19926;-94
2023/10/22 11:01:41;;;;;;;;;;;;;;;;;;4984090;28;20373;-94
2023/10/22 11:04:09;;;;;;;;;;;;;;;;;;4967466;28;19932;-94
2023/10/22 11:06:35;;;;;;;;;;;;;;;;;;4968099;28;20429;-94
2023/10/22 11:09:01;;;;;;;;;;;;;;;;;;4967640;28;19928;-94
2023/10/22 11:11:36;;;;;;;;;;;;;;;;;;4964668;28;19972;-93
2023/10/22 11:14:02;;;;;;;;;;;;;;;;;;4984612;28;20009;-94
2023/10/22 11:16:28;;;;;;;;;;;;;;;;;;4977001;28;20390;-93
2023/10/22 11:18:56;;;;;;;;;;;;;;;;;;4981336;28;19960;-93
2023/10/22 11:21:22;;;;;;;;;;;;;;;;;;4968363;28;19914;-93
2023/10/22 11:23:48;;;;;;;;;;;;;;;;;;4968806;28;20424;-94
2023/10/22 11:26:14;;;;;;;;;;;;;;;;;;4976235;28;19922;-94
2023/10/22 11:28:40;;;;;;;;;;;;;;;;;;4967743;28;19918;-94
2023/10/22 11:31:06;;;;;;;;;;;;;;;;;;4969527;28;20399;-94
2023/10/22 11:33:34;;;;;;;;;;;;;;;;;;4970882;28;19956;-94
2023/10/22 11:36:00;;;;;;;;;;;;;;;;;;4982384;28;19972;-94
2023/10/22 11:38:29;;;;;;;;;;;;;;;;;;4983253;28;20366;-94
2023/10/22 11:40:55;;;;;;;;;;;;;;;;;;4973179;28;19993;-94
2023/10/22 11:43:26;;;;;;;;;;;;;;;;;;4975534;28;20317;-92
2023/10/22 11:45:52;;;;;;;;;;;;;;;;;;4975688;28;19981;-91
2023/10/22 11:48:18;;;;;;;;;;;;;;;;;;4971131;28;19918;-91
2023/10/22 11:50:44;;;;;;;;;;;;;;;;;;4984525;28;19914;-91
2023/10/22 11:53:10;;;;;;;;;;;;;;;;;;4985417;28;20468;-91
2023/10/22 11:55:36;;;;;;;;;;;;;;;;;;4968968;28;19925;-91
2023/10/22 11:58:02;;;;;;;;;;;;;;;;;;4982872;28;19915;-93
2023/10/22 12:00:28;;;;;;;;;;;;;;;;;;4968020;28;19918;-94
2023/10/22 12:02:54;;;;;;;;;;;;;;;;;;4968308;28;19922;-94
2023/10/22 12:05:23;;;;;;;;;;;;;;;;;;4967552;28;19929;-95
2023/10/22 12:07:49;;;;;;;;;;;;;;;;;;4961937;28;20172;-94
2023/10/22 12:10:17;;;;;;;;;;;;;;;;;;4972260;28;19918;-94
2023/10/22 12:12:43;;;;;;;;;;;;;;;;;;4969330;28;19922;-94
2023/10/22 12:15:09;;;;;;;;;;;;;;;;;;4967277;28;20425;-94
2023/10/22 12:17:35;;;;;;;;;;;;;;;;;;4969235;28;19929;-94
2023/10/22 12:20:01;;;;;;;;;;;;;;;;;;4969184;28;19922;-94
2023/10/22 12:22:27;;;;;;;;;;;;;;;;;;4971104;28;20436;-93
2023/10/22 12:24:54;;;;;;;;;;;;;;;;;;4983515;28;20437;-93
2023/10/22 12:27:19;;;;;;;;;;;;;;;;;;4970293;28;19924;-95
2023/10/22 12:29:46;;;;;;;;;;;;;;;;;;4981629;28;20433;-94
2023/10/22 12:32:12;;;;;;;;;;;;;;;;;;4967811;28;20187;-94
2023/10/22 12:34:38;;;;;;;;;;;;;;;;;;4985923;28;19968;-94
2023/10/22 12:37:04;;;;;;;;;;;;;;;;;;4970916;28;19918;-93
2023/10/22 12:39:36;;;;;;;;;;;;;;;;;;4970523;28;19970;-92
2023/10/22 12:42:03;;;;;;;;;;;;;;;;;;4967507;28;19982;-94
2023/10/22 12:44:29;;;;;;;;;;;;;;;;;;4969603;28;19929;-94
2023/10/22 12:46:55;;;;;;;;;;;;;;;;;;4966707;28;20305;-96
2023/10/22 12:49:21;;;;;;;;;;;;;;;;;;4970034;28;19918;-93
2023/10/22 12:51:47;;;;;;;;;;;;;;;;;;4965242;28;20187;-96
2023/10/22 12:54:13;;;;;;;;;;;;;;;;;;4973136;28;19945;-94
2023/10/22 12:56:39;;;;;;;;;;;;;;;;;;4968686;28;19929;-93
2023/10/22 12:59:05;;;;;;;;;;;;;;;;;;4967117;28;20673;-95
2023/10/22 13:01:31;;;;;;;;;;;;;;;;;;4969236;28;19945;-93
2023/10/22 13:03:59;;;;;;;;;;;;;;;;;;4972363;28;20275;-92
2023/10/22 13:06:29;;;;;;;;;;;;;;;;;;4974344;28;19921;-93
2023/10/22 13:08:55;;;;;;;;;;;;;;;;;;4975102;28;19914;-93
2023/10/22 13:11:21;;;;;;;;;;;;;;;;;;4975144;28;19963;-93
2023/10/22 13:13:47;;;;;;;;;;;;;;;;;;4975370;28;19924;-94
2023/10/22 13:16:14;;;;;;;;;;;;;;;;;;4966255;28;20393;-93
2023/10/22 13:18:41;;;;;;;;;;;;;;;;;;4966857;28;19938;-92
2023/10/22 13:21:07;;;;;;;;;;;;;;;;;;4967343;28;19942;-93
2023/10/22 13:23:33;;;;;;;;;;;;;;;;;;4977781;28;20223;-92
2023/10/22 13:25:59;;;;;;;;;;;;;;;;;;4977122;28;19957;-94
2023/10/22 13:28:26;;;;;;;;;;;;;;;;;;4967525;28;20004;-95
2023/10/22 13:30:52;;;;;;;;;;;;;;;;;;4968237;28;19941;-94
2023/10/22 13:33:18;;;;;;;;;;;;;;;;;;4976368;28;19914;-96
2023/10/22 13:35:44;;;;;;;;;;;;;;;;;;4968521;28;20362;-94
2023/10/22 13:38:10;;;;;;;;;;;;;;;;;;4960014;28;19973;-91
2023/10/22 13:40:37;;;;;;;;;;;;;;;;;;4981036;28;19918;-91
2023/10/22 13:43:03;;;;;;;;;;;;;;;;;;4967567;28;19928;-92
2023/10/22 13:45:29;;;;;;;;;;;;;;;;;;4969284;28;20008;-92
2023/10/22 13:47:55;;;;;;;;;;;;;;;;;;4981965;28;19917;-91
2023/10/22 13:50:21;;;;;;;;;;;;;;;;;;4972074;28;20233;-91
2023/10/22 13:52:47;;;;;;;;;;;;;;;;;;4967065;28;19929;-93
2023/10/22 13:55:14;;;;;;;;;;;;;;;;;;4969194;28;19928;-92
2023/10/22 13:57:40;;;;;;;;;;;;;;;;;;4963666;28;19918;-91
2023/10/22 14:00:09;;;;;;;;;;;;;;;;;;4965361;28;20472;-92
2023/10/22 14:02:36;;;;;;;;;;;;;;;;;;4982917;28;19922;-92
2023/10/22 14:05:02;;;;;;;;;;;;;;;;;;4967426;28;20057;-92
2023/10/22 14:07:27;;;;;;;;;;;;;;;;;;4973248;28;20012;-92
2023/10/22 14:09:53;;;;;;;;;;;;;;;;;;4970132;28;19917;-90
2023/10/22 14:12:19;;;;;;;;;;;;;;;;;;4971613;28;19922;-91
2023/10/22 14:14:45;;;;;;;;;;;;;;;;;;4976830;28;19983;-93
2023/10/22 14:17:12;;;;;;;;;;;;;;;;;;4982529;28;20444;-91
2023/10/22 14:19:38;;;;;;;;;;;;;;;;;;4972762;28;20004;-90
2023/10/22 14:22:04;;;;;;;;;;;;;;;;;;4969643;28;20017;-92
2023/10/22 14:24:31;;;;;;;;;;;;;;;;;;4991074;28;19974;-89
2023/10/22 14:26:59;;;;;;;;;;;;;;;;;;4976377;28;19938;-91
2023/10/22 14:29:26;;;;;;;;;;;;;;;;;;4976822;28;20333;-90
2023/10/22 14:31:52;;;;;;;;;;;;;;;;;;4982862;28;20004;-90
2023/10/22 14:34:18;;;;;;;;;;;;;;;;;;4990858;28;20063;-90
2023/10/22 14:36:44;;;;;;;;;;;;;;;;;;4971851;28;20210;-91
2023/10/22 14:39:12;;;;;;;;;;;;;;;;;;4976561;28;20298;-90
2023/10/22 14:41:38;;;;;;;;;;;;;;;;;;4973347;28;20314;-92
2023/10/22 14:44:04;;;;;;;;;;;;;;;;;;4984558;28;19918;-91
2023/10/22 14:46:33;;;;;;;;;;;;;;;;;;4976495;28;19921;-92
2023/10/22 14:48:59;;;;;;;;;;;;;;;;;;4989398;28;19918;-90
2023/10/22 14:51:25;;;;;;;;;;;;;;;;;;4979018;28;19918;-91
2023/10/22 14:53:51;;;;;;;;;;;;;;;;;;4984298;28;19918;-91
2023/10/22 14:56:17;;;;;;;;;;;;;;;;;;4978083;28;20386;-91
2023/10/22 14:58:43;;;;;;;;;;;;;;;;;;4975783;28;19966;-91
2023/10/22 15:01:11;;;;;;;;;;;;;;;;;;4971349;28;19917;-90
2023/10/22 15:03:37;;;;;;;;;;;;;;;;;;4972672;28;19972;-90
2023/10/22 15:06:04;;;;;;;;;;;;;;;;;;4970215;28;19952;-91
2023/10/22 15:08:31;;;;;;;;;;;;;;;;;;4971545;28;19917;-90
2023/10/22 15:10:57;;;;;;;;;;;;;;;;;;4972218;28;19917;-91
2023/10/22 15:13:23;;;;;;;;;;;;;;;;;;4969177;28;19914;-91
2023/10/22 15:15:49;;;;;;;;;;;;;;;;;;4970463;28;19914;-91
2023/10/22 15:18:18;;;;;;;;;;;;;;;;;;4972196;28;20374;-91
2023/10/22 15:20:44;;;;;;;;;;;;;;;;;;4969885;28;19981;-92
2023/10/22 15:23:12;;;;;;;;;;;;;;;;;;4971209;28;20382;-91
2023/10/22 15:25:38;;;;;;;;;;;;;;;;;;4970583;28;19940;-91
2023/10/22 15:28:04;;;;;;;;;;;;;;;;;;4972583;28;19914;-91
2023/10/22 15:30:30;;;;;;;;;;;;;;;;;;4983152;28;19914;-91
2023/10/22 15:32:56;;;;;;;;;;;;;;;;;;4981237;28;19925;-92
2023/10/22 15:35:27;;;;;;;;;;;;;;;;;;4975088;28;19972;-92
2023/10/22 15:37:53;;;;;;;;;;;;;;;;;;4985772;28;19920;-92
2023/10/22 15:40:20;;;;;;;;;;;;;;;;;;4967730;28;19918;-90
2023/10/22 15:42:46;;;;;;;;;;;;;;;;;;4987189;28;20342;-92
2023/10/22 15:45:12;;;;;;;;;;;;;;;;;;4970219;28;19913;-91
2023/10/22 15:47:38;;;;;;;;;;;;;;;;;;4984935;28;19987;-92
2023/10/22 15:50:04;;;;;;;;;;;;;;;;;;4967743;28;20012;-92
2023/10/22 15:52:30;;;;;;;;;;;;;;;;;;4980766;28;19951;-92
2023/10/22 15:54:59;;;;;;;;;;;;;;;;;;4966180;28;19917;-92
2023/10/22 15:57:25;;;;;;;;;;;;;;;;;;4969623;28;19918;-92
2023/10/22 15:59:51;;;;;;;;;;;;;;;;;;4984430;28;19929;-92
2023/10/22 16:02:18;;;;;;;;;;;;;;;;;;4968323;28;19913;-91
2023/10/22 16:04:44;;;;;;;;;;;;;;;;;;4967651;28;19961;-92
2023/10/22 16:07:09;;;;;;;;;;;;;;;;;;4973335;28;19919;-92
2023/10/22 16:09:35;;;;;;;;;;;;;;;;;;4977676;28;20024;-91
2023/10/22 16:12:01;;;;;;;;;;;;;;;;;;4965601;28;19924;-92
2023/10/22 16:14:27;;;;;;;;;;;;;;;;;;4967020;28;19937;-92
2023/10/22 16:16:53;;;;;;;;;;;;;;;;;;4985466;28;19914;-91
2023/10/22 16:19:19;;;;;;;;;;;;;;;;;;4967359;28;19914;-92
2023/10/22 16:21:45;;;;;;;;;;;;;;;;;;4966106;28;19998;-92
2023/10/22 16:24:12;;;;;;;;;;;;;;;;;;4966897;28;19933;-91
2023/10/22 16:26:37;;;;;;;;;;;;;;;;;;4963724;28;19918;-91
2023/10/22 16:29:03;;;;;;;;;;;;;;;;;;4966576;28;20383;-92
2023/10/22 16:31:30;;;;;;;;;;;;;;;;;;4967774;28;19914;-92
2023/10/22 16:33:56;;;;;;;;;;;;;;;;;;4972070;28;19925;-91
2023/10/22 16:36:22;;;;;;;;;;;;;;;;;;4975031;28;19973;-93
2023/10/22 16:38:51;;;;;;;;;;;;;;;;;;4969414;28;19952;-92
2023/10/22 16:41:18;;;;;;;;;;;;;;;;;;4971027;28;19918;-92
2023/10/22 16:43:44;;;;;;;;;;;;;;;;;;4978114;28;19961;-90
2023/10/22 16:46:10;;;;;;;;;;;;;;;;;;4970774;28;19952;-91
2023/10/22 16:48:45;;;;;;;;;;;;;;;;;;4973404;28;19918;-91
2023/10/22 16:51:11;;;;;;;;;;;;;;;;;;4972580;28;19918;-91
2023/10/22 16:53:37;;;;;;;;;;;;;;;;;;4969836;28;19918;-90
2023/10/22 16:56:03;;;;;;;;;;;;;;;;;;4974561;28;19924;-91
2023/10/22 16:58:29;;;;;;;;;;;;;;;;;;4969573;28;20020;-92
2023/10/22 17:00:55;;;;;;;;;;;;;;;;;;4984519;28;19981;-90
2023/10/22 17:03:21;;;;;;;;;;;;;;;;;;4968155;28;19930;-91
2023/10/22 17:05:47;;;;;;;;;;;;;;;;;;4968613;28;19973;-90
2023/10/22 17:08:13;;;;;;;;;;;;;;;;;;4979856;28;19973;-92
2023/10/22 17:10:39;;;;;;;;;;;;;;;;;;4980666;28;19914;-91
2023/10/22 17:13:05;;;;;;;;;;;;;;;;;;4966974;28;19937;-91
2023/10/22 17:15:32;;;;;;;;;;;;;;;;;;4970961;28;19926;-92
2023/10/22 17:17:58;;;;;;;;;;;;;;;;;;4973325;28;19925;-91
2023/10/22 17:20:24;;;;;;;;;;;;;;;;;;4977622;28;19918;-91
2023/10/22 17:22:50;;;;;;;;;;;;;;;;;;4967306;28;19965;-90
2023/10/22 17:25:16;;;;;;;;;;;;;;;;;;4970744;28;19953;-92
2023/10/22 17:27:42;;;;;;;;;;;;;;;;;;4969563;28;19933;-90
2023/10/22 17:30:09;;;;;;;;;;;;;;;;;;4969877;28;19914;-90
2023/10/22 17:32:36;;;;;;;;;;;;;;;;;;4975622;28;19913;-91
2023/10/22 17:35:05;;;;;;;;;;;;;;;;;;4976132;28;20365;-91
2023/10/22 17:37:31;;;;;;;;;;;;;;;;;;4971164;28;20409;-91
2023/10/22 17:39:57;;;;;;;;;;;;;;;;;;4970736;28;19917;-90
2023/10/22 17:42:23;;;;;;;;;;;;;;;;;;4976209;28;19928;-91
2023/10/22 17:44:49;;;;;;;;;;;;;;;;;;4984635;28;19940;-91
2023/10/22 17:47:18;;;;;;;;;;;;;;;;;;4966782;28;20470;-91
2023/10/22 17:49:44;;;;;;;;;;;;;;;;;;4974990;28;19914;-91
2023/10/22 17:52:09;;;;;;;;;;;;;;;;;;4969311;28;19914;-91
2023/10/22 17:54:36;;;;;;;;;;;;;;;;;;4975748;28;19914;-92
2023/10/22 17:57:02;;;;;;;;;;;;;;;;;;4978634;28;19925;-92
2023/10/22 17:59:27;;;;;;;;;;;;;;;;;;4980049;28;19914;-91
2023/10/22 18:01:54;;;;;;;;;;;;;;;;;;4976338;28;20389;-91
2023/10/22 18:04:20;;;;;;;;;;;;;;;;;;4977928;28;19960;-94
2023/10/22 18:06:46;;;;;;;;;;;;;;;;;;4970548;28;19961;-91
2023/10/22 18:09:12;;;;;;;;;;;;;;;;;;4979258;28;19969;-91
2023/10/22 18:11:38;;;;;;;;;;;;;;;;;;4983679;28;19918;-91
2023/10/22 18:14:04;;;;;;;;;;;;;;;;;;4974014;28;20449;-91
2023/10/22 18:16:32;;;;;;;;;;;;;;;;;;4970562;28;19918;-91
2023/10/22 18:18:58;;;;;;;;;;;;;;;;;;4973480;28;19925;-91
2023/10/22 18:21:24;;;;;;;;;;;;;;;;;;4971089;28;20004;-91
2023/10/22 18:23:50;;;;;;;;;;;;;;;;;;4973175;28;19972;-92
2023/10/22 18:26:16;;;;;;;;;;;;;;;;;;4987065;28;19914;-91
2023/10/22 18:28:42;;;;;;;;;;;;;;;;;;4974604;28;20022;-91
2023/10/22 18:31:08;;;;;;;;;;;;;;;;;;4969666;28;19914;-91
2023/10/22 18:33:34;;;;;;;;;;;;;;;;;;4972923;28;19925;-91
2023/10/22 18:36:02;;;;;;;;;;;;;;;;;;4981823;28;20320;-91
2023/10/22 18:38:29;;;;;;;;;;;;;;;;;;4969965;28;19922;-91
2023/10/22 18:41:02;;;;;;;;;;;;;;;;;;4983366;28;19914;-92
2023/10/22 18:43:28;;;;;;;;;;;;;;;;;;4984204;28;20378;-92
2023/10/22 18:45:54;;;;;;;;;;;;;;;;;;4955719;28;19918;-91
2023/10/22 18:48:20;;;;;;;;;;;;;;;;;;4959233;28;19914;-91
2023/10/22 18:50:46;;;;;;;;;;;;;;;;;;4967246;28;20341;-91
2023/10/22 18:53:16;;;;;;;;;;;;;;;;;;4980176;28;19945;-91
2023/10/22 18:55:42;;;;;;;;;;;;;;;;;;4966442;28;19983;-91
2023/10/22 18:58:08;;;;;;;;;;;;;;;;;;4967321;28;19936;-91
2023/10/22 19:00:34;;;;;;;;;;;;;;;;;;4974138;28;19922;-91
2023/10/22 19:03:00;;;;;;;;;;;;;;;;;;4981326;28;19922;-91
2023/10/22 19:05:29;;;;;;;;;;;;;;;;;;4970689;28;19929;-91
2023/10/22 19:07:55;;;;;;;;;;;;;;;;;;4971486;28;19917;-91
2023/10/22 19:10:21;;;;;;;;;;;;;;;;;;4982799;28;19918;-91
2023/10/22 19:12:47;;;;;;;;;;;;;;;;;;4978127;28;19957;-91
2023/10/22 19:15:14;;;;;;;;;;;;;;;;;;4969137;28;20511;-91
2023/10/22 19:17:41;;;;;;;;;;;;;;;;;;4967014;28;20370;-91
2023/10/22 19:20:10;;;;;;;;;;;;;;;;;;4971482;28;19914;-91
2023/10/22 19:22:36;;;;;;;;;;;;;;;;;;4968823;28;19914;-91
2023/10/22 19:25:03;;;;;;;;;;;;;;;;;;4971284;28;19922;-91
2023/10/22 19:27:29;;;;;;;;;;;;;;;;;;4976889;28;20382;-91
2023/10/22 19:29:55;;;;;;;;;;;;;;;;;;4968095;28;19972;-91
2023/10/22 19:32:27;;;;;;;;;;;;;;;;;;4964763;28;19956;-91
2023/10/22 19:34:53;;;;;;;;;;;;;;;;;;4966784;28;19918;-91
2023/10/22 19:37:19;;;;;;;;;;;;;;;;;;4974767;28;19917;-91
2023/10/22 19:39:45;;;;;;;;;;;;;;;;;;4966709;28;19933;-91
2023/10/22 19:42:11;;;;;;;;;;;;;;;;;;4985380;28;19939;-91
2023/10/22 19:44:37;;;;;;;;;;;;;;;;;;4965900;28;19921;-91
2023/10/22 19:47:02;;;;;;;;;;;;;;;;;;4966790;28;20005;-91
2023/10/22 19:49:28;;;;;;;;;;;;;;;;;;4963783;28;20420;-91
2023/10/22 19:51:54;;;;;;;;;;;;;;;;;;4963143;28;19921;-91
2023/10/22 19:54:21;;;;;;;;;;;;;;;;;;4968319;28;19960;-91
2023/10/22 19:56:47;;;;;;;;;;;;;;;;;;4965533;28;19918;-91
2023/10/22 19:59:13;;;;;;;;;;;;;;;;;;4963267;28;19925;-91
2023/10/22 20:01:38;;;;;;;;;;;;;;;;;;4965456;28;19914;-91
2023/10/22 20:04:04;;;;;;;;;;;;;;;;;;4967603;28;19964;-91
2023/10/22 20:06:30;;;;;;;;;;;;;;;;;;4971228;28;19913;-91
2023/10/22 20:08:56;;;;;;;;;;;;;;;;;;4980564;28;20378;-92
2023/10/22 20:11:23;;;;;;;;;;;;;;;;;;4964780;28;19925;-92
2023/10/22 20:13:49;;;;;;;;;;;;;;;;;;4961891;28;19918;-92
2023/10/22 20:16:15;;;;;;;;;;;;;;;;;;4967679;28;20351;-91
2023/10/22 20:18:44;;;;;;;;;;;;;;;;;;4965614;28;19991;-92
2023/10/22 20:21:12;;;;;;;;;;;;;;;;;;4964338;28;19917;-92
2023/10/22 20:23:38;;;;;;;;;;;;;;;;;;4968421;28;19922;-91
2023/10/22 20:26:04;;;;;;;;;;;;;;;;;;4966642;28;20097;-91
2023/10/22 20:28:30;;;;;;;;;;;;;;;;;;4963096;28;20331;-92
2023/10/22 20:30:56;;;;;;;;;;;;;;;;;;4980091;28;20418;-91
2023/10/22 20:33:22;;;;;;;;;;;;;;;;;;4981291;28;19957;-91
2023/10/22 20:35:48;;;;;;;;;;;;;;;;;;4964785;28;20012;-91
2023/10/22 20:38:14;;;;;;;;;;;;;;;;;;4967866;28;20013;-93
2023/10/22 20:40:40;;;;;;;;;;;;;;;;;;4964205;28;19918;-92
2023/10/22 20:43:06;;;;;;;;;;;;;;;;;;4955361;28;20013;-90
2023/10/22 20:45:38;;;;;;;;;;;;;;;;;;4969601;28;20418;-93
2023/10/22 23:14:31;;;;;;;;;;;;;;;;;;919186;23;20222;-89
2023/10/22 23:17:00;;;;;;;;;;;;;;;;;;4986850;28;19929;-91
2023/10/22 23:19:27;;;;;;;;;;;;;;;;;;4985443;28;19914;-91
2023/10/22 23:21:53;;;;;;;;;;;;;;;;;;4982103;28;19926;-91
2023/10/22 23:24:19;;;;;;;;;;;;;;;;;;4984758;28;19918;-93
2023/10/22 23:26:45;;;;;;;;;;;;;;;;;;4985324;28;19914;-92
2023/10/22 23:29:11;;;;;;;;;;;;;;;;;;4986165;28;20410;-91
2023/10/22 23:31:37;;;;;;;;;;;;;;;;;;4985231;28;19913;-91
2023/10/22 23:34:04;;;;;;;;;;;;;;;;;;4984682;28;19914;-92
2023/10/22 23:36:29;;;;;;;;;;;;;;;;;;4992478;28;20032;-91
2023/10/22 23:38:55;;;;;;;;;;;;;;;;;;4982376;28;20024;-92
2023/10/22 23:41:22;;;;;;;;;;;;;;;;;;4986542;28;19914;-92
2023/10/22 23:43:48;;;;;;;;;;;;;;;;;;4986425;28;19944;-93
2023/10/22 23:46:14;;;;;;;;;;;;;;;;;;4984411;28;19918;-93
2023/10/22 23:48:40;;;;;;;;;;;;;;;;;;4984348;28;19914;-93
2023/10/22 23:51:06;;;;;;;;;;;;;;;;;;4984645;28;20405;-92
2023/10/22 23:53:32;;;;;;;;;;;;;;;;;;4984091;28;19918;-92
2023/10/22 23:55:58;;;;;;;;;;;;;;;;;;4979436;28;19944;-93
2023/10/22 23:58:24;;;;;;;;;;;;;;;;;;4967499;28;19919;-92
